Portada
METAR-TAF:

METAR-TAF

Aeroports :

Aiacciu, França

latitud: 41-55N, longitud: 008-48E, altitud: 6 m

Observació

L'informe es va fer fa 20 minuts, a les 17:00 UTC
Vent 5 kt del Oest, variant entre Sud-Oest i Oest/Nord-Oest
Temperatura 13°C
Humitat 54%
Pressió 1016 hPa
Visibilitat 10 km o més
Cel cobert a una alçada de 4300 ft

METAR: LFKJ 011700Z AUTO 27005KT 230V300 9999 OVC043 13/04 Q1016 NOSIG

Hora: 19:20 (17:20 UTC)

Pronòstic

L'informe es va fer fa 3 hores i 20 minuts, a les 14:00 UTC
Pronòstic vàlid del 01 a les 15 UTC al 02 a les 15 UTC
Vent 10 kt del Oest
Visibilitat 10 km o més
Cel ennuvolat a una alçada de 4000 ft
Evolucionant progressivament
l' 01 a les 15 UTC al 01 a les 17 UTC
Vent 6 kt del Nord-Est

TAF: LFKJ 011400Z 0115/0215 28010KT 9999 BKN040 BECMG 0115/0117 05006KT

Observacions i pronòstics meteorològics de més de 4000 aeroports (METAR i TAF).

Les estacions disponibles són els punts grocs i vermells al mapa.

Posi el ratolí al punt desitjat per veure el nom de l'estació.

Feu clic per veure les observacions i els pronòstics meteorològics.

Per canviar el mapa: feu clic els botons verds amb una creu de color negre per apropar; al botó verd amb un guió per allunyar la imatge; o en les fletxes verdes per a mapes adjacents.


METAR-TAF: